Time;durP1;ratioP1;P1;durP2;ratioP2;P2;SDS_P1;SDS_P2;PMS_P1;PMS_P2;Temp;Humidity;BMP_temperature;BMP_pressure;BME280_temperature;BME280_humidity;BME280_pressure;Samples;Min_cycle;Max_cycle;Signal;HPM_P1;HPM_P2
2023/03/06 00:01:16;;;;;;;24.90;12.90;;;;;;;8.41;48.95;98045.03;7000144;28;20247;-81
2023/03/06 00:04:38;;;;;;;23.40;14.00;;;;;;;8.42;49.15;98027.09;7002057;28;20225;-81
2023/03/06 00:07:59;;;;;;;29.23;16.17;;;;;;;8.35;49.15;98028.94;7006143;28;20634;-81
2023/03/06 00:11:22;;;;;;;29.00;15.57;;;;;;;8.13;49.76;98028.31;7006551;28;20697;-81
2023/03/06 00:14:43;;;;;;;19.90;12.83;;;;;;;8.04;50.50;98016.16;7006177;28;20612;-81
2023/03/06 00:18:06;;;;;;;20.93;12.77;;;;;;;8.17;49.81;98020.66;7005512;28;20212;-81
2023/03/06 00:21:27;;;;;;;22.40;14.10;;;;;;;7.40;50.89;97993.66;7005601;28;20654;-81
2023/03/06 00:24:49;;;;;;;24.77;12.67;;;;;;;8.20;49.45;98007.69;7005854;28;20257;-81
2023/03/06 00:28:13;;;;;;;19.00;12.03;;;;;;;8.35;48.41;98016.34;7005233;28;20243;-81
2023/03/06 00:31:35;;;;;;;19.63;12.13;;;;;;;8.36;49.11;97996.50;7005694;28;20209;-81
2023/03/06 00:34:56;;;;;;;23.10;12.70;;;;;;;8.08;49.35;97990.53;7006025;28;20206;-81
2023/03/06 00:38:18;;;;;;;17.97;12.40;;;;;;;8.17;49.63;97991.97;7004609;28;20773;-81
2023/03/06 00:41:39;;;;;;;22.10;12.93;;;;;;;8.27;49.69;97989.72;7006074;28;20214;-82
2023/03/06 00:45:02;;;;;;;22.80;12.77;;;;;;;7.97;49.03;97966.22;7004621;28;20286;-80
2023/03/06 00:48:24;;;;;;;18.50;12.63;;;;;;;8.22;49.54;97988.69;7002494;28;20823;-80
2023/03/06 00:51:45;;;;;;;22.43;12.93;;;;;;;8.47;49.10;97984.28;7004625;28;20627;-80
2023/03/06 00:55:08;;;;;;;23.27;13.50;;;;;;;8.58;48.54;97970.19;7014127;28;20238;-80
2023/03/06 00:58:29;;;;;;;22.50;13.27;;;;;;;8.26;48.99;97965.75;7009679;28;20362;-80
2023/03/06 01:01:52;;;;;;;20.73;13.00;;;;;;;8.08;49.23;97965.56;7005413;28;20257;-80
2023/03/06 01:05:14;;;;;;;23.03;14.80;;;;;;;8.52;48.19;97963.81;7005602;28;20395;-80
2023/03/06 01:08:36;;;;;;;22.70;13.93;;;;;;;8.00;49.04;97971.97;7005837;28;20228;-80
2023/03/06 01:11:57;;;;;;;21.67;13.30;;;;;;;8.48;48.36;97953.72;6999772;28;20222;-80
2023/03/06 01:15:19;;;;;;;24.40;12.90;;;;;;;8.77;47.48;97950.50;7004365;28;20288;-80
2023/03/06 01:18:42;;;;;;;18.53;12.13;;;;;;;8.67;48.02;97940.19;7004088;28;20880;-80
2023/03/06 01:22:04;;;;;;;24.40;13.63;;;;;;;8.73;48.29;97947.38;7004676;28;20210;-80
2023/03/06 01:25:26;;;;;;;22.77;13.50;;;;;;;8.25;49.38;97927.34;7005475;28;20281;-80
2023/03/06 01:28:47;;;;;;;23.50;13.40;;;;;;;7.85;50.51;97949.91;7005015;28;20386;-80
2023/03/06 01:32:09;;;;;;;25.63;14.50;;;;;;;8.16;50.43;97947.38;7004657;28;20275;-80
2023/03/06 01:35:32;;;;;;;28.00;13.87;;;;;;;8.37;49.84;97941.75;7005104;28;20354;-80
2023/03/06 01:38:53;;;;;;;23.27;14.10;;;;;;;8.19;50.47;97932.72;7004421;28;20228;-80
2023/03/06 01:42:15;;;;;;;21.90;14.23;;;;;;;7.84;50.17;97870.44;7005241;28;20208;-80
2023/03/06 01:46:13;;;;;;;27.37;13.43;;;;;;;8.59;49.17;97929.69;7004207;28;20221;-80
2023/03/06 01:49:36;;;;;;;31.23;14.43;;;;;;;8.51;49.64;97927.25;7004297;28;20282;-80
2023/03/06 01:53:00;;;;;;;22.90;13.90;;;;;;;8.82;48.81;97921.09;7004685;28;20673;-80
2023/03/06 01:56:22;;;;;;;22.00;14.07;;;;;;;8.23;49.96;97932.09;7004470;28;20335;-80
2023/03/06 01:59:44;;;;;;;24.73;14.83;;;;;;;8.32;50.45;97913.91;6998865;28;20306;-80
2023/03/06 02:03:08;;;;;;;27.23;15.27;;;;;;;8.41;49.73;97915.28;6977470;28;20293;-80
2023/03/06 02:06:29;;;;;;;21.57;13.63;;;;;;;8.08;50.32;97915.38;6986186;28;20225;-80
2023/03/06 02:09:52;;;;;;;26.80;15.20;;;;;;;7.75;50.60;97844.03;7005169;28;20225;-80
2023/03/06 02:13:14;;;;;;;24.60;14.77;;;;;;;7.30;52.51;97912.81;7005091;28;20198;-80
2023/03/06 02:16:35;;;;;;;25.43;15.20;;;;;;;7.68;50.64;97838.72;7004811;28;20650;-80
2023/03/06 02:20:01;;;;;;;24.13;14.60;;;;;;;7.65;51.76;97892.78;7004723;28;20313;-81
2023/03/06 02:23:28;;;;;;;26.43;16.37;;;;;;;8.01;50.76;97882.38;7006803;28;20316;-80
2023/03/06 02:26:51;;;;;;;28.37;15.73;;;;;;;7.64;51.49;97842.00;7006262;28;20344;-80
2023/03/06 02:30:15;;;;;;;26.33;15.87;;;;;;;7.51;50.80;97832.16;7006885;28;20258;-80
2023/03/06 02:33:37;;;;;;;26.53;15.23;;;;;;;7.84;51.46;97859.72;7003938;28;20251;-80
2023/03/06 02:37:00;;;;;;;22.53;14.20;;;;;;;7.99;50.31;97830.78;7003706;28;20299;-80
2023/03/06 02:40:23;;;;;;;23.17;13.83;;;;;;;8.28;50.54;97859.81;7004148;28;20241;-80
2023/03/06 02:43:47;;;;;;;22.47;13.97;;;;;;;7.87;51.74;97861.16;7004210;28;20229;-80
2023/03/06 02:47:09;;;;;;;26.00;14.73;;;;;;;8.18;51.32;97862.06;7003463;28;20621;-80
2023/03/06 02:50:31;;;;;;;30.03;15.90;;;;;;;8.09;51.01;97844.56;7002378;28;20289;-80
2023/03/06 02:53:52;;;;;;;26.67;14.60;;;;;;;7.79;51.20;97854.16;7013403;28;20205;-80
2023/03/06 02:57:14;;;;;;;26.57;15.47;;;;;;;7.69;52.01;97837.69;7006531;28;20294;-80
2023/03/06 03:00:38;;;;;;;24.87;15.23;;;;;;;7.79;52.10;97843.41;7006248;28;20374;-80
2023/03/06 03:03:59;;;;;;;27.77;14.97;;;;;;;7.77;52.21;97848.16;7016540;28;20227;-80
2023/03/06 03:07:21;;;;;;;23.10;14.70;;;;;;;8.15;51.18;97835.66;7005447;28;20209;-80
2023/03/06 03:10:42;;;;;;;24.67;14.17;;;;;;;8.12;50.88;97843.28;7014754;28;20244;-81
2023/03/06 03:14:04;;;;;;;24.03;14.07;;;;;;;7.67;51.89;97841.59;7019141;28;20229;-80
2023/03/06 03:17:26;;;;;;;28.23;15.37;;;;;;;7.84;51.83;97840.91;7003201;28;20336;-80
2023/03/06 03:20:48;;;;;;;25.43;15.20;;;;;;;7.95;51.49;97834.09;7003516;28;20306;-80
2023/03/06 03:24:09;;;;;;;27.17;14.17;;;;;;;7.92;51.38;97839.88;7003327;28;20278;-80
2023/03/06 03:27:31;;;;;;;21.93;13.60;;;;;;;8.23;50.63;97835.44;7002732;28;20217;-80
2023/03/06 03:30:52;;;;;;;23.33;14.13;;;;;;;7.70;51.32;97841.16;7014357;28;20638;-80
2023/03/06 03:34:15;;;;;;;23.20;14.17;;;;;;;7.58;52.47;97842.84;7011620;28;20241;-80
2023/03/06 03:37:37;;;;;;;23.47;14.17;;;;;;;7.81;52.05;97827.09;7003967;28;20609;-80
2023/03/06 03:41:00;;;;;;;26.93;16.17;;;;;;;7.19;53.50;97833.00;7003637;28;20314;-80
2023/03/06 03:44:21;;;;;;;26.30;15.43;;;;;;;7.94;51.88;97819.00;7002964;28;20316;-80
2023/03/06 03:47:43;;;;;;;29.80;14.63;;;;;;;7.98;51.30;97817.56;7003262;28;20275;-80
2023/03/06 03:51:07;;;;;;;21.20;13.93;;;;;;;7.67;51.64;97826.31;7001474;28;20761;-80
2023/03/06 03:54:29;;;;;;;24.23;15.10;;;;;;;7.21;52.00;97782.72;7002478;28;20214;-81
2023/03/06 03:57:51;;;;;;;25.40;14.53;;;;;;;7.39;52.79;97833.81;7002742;28;20343;-80
2023/03/06 04:01:12;;;;;;;25.13;15.17;;;;;;;7.40;52.79;97835.47;7000164;28;20222;-80
2023/03/06 04:04:34;;;;;;;24.47;14.43;;;;;;;7.91;51.67;97817.56;7002448;28;20720;-80
2023/03/06 04:07:57;;;;;;;24.63;13.27;;;;;;;7.85;51.80;97806.88;7001880;28;20208;-80
2023/03/06 04:11:18;;;;;;;21.83;13.83;;;;;;;7.66;52.15;97810.47;7001710;28;20297;-80
2023/03/06 04:14:40;;;;;;;25.93;14.33;;;;;;;7.70;51.96;97804.44;7002506;28;20664;-80
2023/03/06 04:18:01;;;;;;;23.30;14.40;;;;;;;7.71;52.41;97798.03;7001374;28;20210;-80
2023/03/06 04:21:23;;;;;;;24.43;14.83;;;;;;;7.46;52.19;97790.88;7001951;28;20249;-80
2023/03/06 04:24:47;;;;;;;25.80;15.00;;;;;;;7.47;53.11;97798.72;7002158;28;20319;-80
2023/03/06 04:28:09;;;;;;;31.27;16.90;;;;;;;7.48;52.90;97802.25;7001693;28;20205;-80
2023/03/06 04:31:30;;;;;;;29.00;18.30;;;;;;;7.16;53.85;97811.16;7001548;28;20300;-78
2023/03/06 04:34:52;;;;;;;31.07;17.43;;;;;;;7.51;53.40;97789.25;7001366;28;20370;-81
2023/03/06 04:38:13;;;;;;;31.77;17.83;;;;;;;7.44;53.36;97791.13;7000089;28;20263;-82
2023/03/06 04:41:36;;;;;;;27.30;16.17;;;;;;;7.38;53.50;97789.25;7001301;28;20522;-81
2023/03/06 04:44:58;;;;;;;34.23;19.20;;;;;;;7.41;53.41;97793.38;7000218;28;20230;-82
2023/03/06 04:48:19;;;;;;;26.40;15.70;;;;;;;7.57;52.79;97790.25;6998723;28;20291;-81
2023/03/06 04:51:41;;;;;;;22.07;14.33;;;;;;;7.45;52.42;97787.41;7003574;28;20211;-81
2023/03/06 04:55:07;;;;;;;22.57;15.00;;;;;;;7.62;52.22;97772.50;7005874;28;20206;-81
2023/03/06 04:58:30;;;;;;;31.03;15.43;;;;;;;7.35;52.12;97736.06;7005116;28;20239;-81
2023/03/06 05:01:52;;;;;;;26.80;15.77;;;;;;;7.34;52.48;97755.03;7005071;28;20649;-80
2023/03/06 05:05:14;;;;;;;29.93;18.07;;;;;;;7.55;52.75;97778.91;7004909;28;20319;-81
2023/03/06 05:08:35;;;;;;;27.20;15.87;;;;;;;7.49;52.80;97783.25;7004523;28;20221;-81
2023/03/06 05:11:57;;;;;;;27.90;16.30;;;;;;;6.97;53.83;97747.69;7010688;28;20750;-80
2023/03/06 05:15:20;;;;;;;29.10;17.13;;;;;;;6.86;53.23;97778.63;7005674;28;20210;-83
2023/03/06 05:18:41;;;;;;;28.03;16.20;;;;;;;6.82;54.45;97772.03;7004218;28;20237;-84
2023/03/06 05:22:03;;;;;;;25.30;15.93;;;;;;;7.46;52.76;97775.63;7002399;28;20358;-82
2023/03/06 05:25:24;;;;;;;28.47;16.97;;;;;;;7.73;52.33;97769.13;6997359;28;20225;-82
2023/03/06 05:28:46;;;;;;;26.53;15.13;;;;;;;7.83;51.72;97776.75;6976680;28;20257;-80
2023/03/06 05:32:09;;;;;;;23.50;14.93;;;;;;;7.69;51.70;97773.31;6984772;28;20215;-81
2023/03/06 05:35:31;;;;;;;24.97;14.60;;;;;;;7.63;52.48;97776.00;6989226;28;20205;-81
2023/03/06 05:38:53;;;;;;;26.10;15.63;;;;;;;7.62;52.38;97759.09;7001593;28;20351;-81
2023/03/06 05:42:14;;;;;;;29.10;15.33;;;;;;;7.77;51.77;97770.38;7002657;28;20210;-82
2023/03/06 05:45:36;;;;;;;28.23;17.17;;;;;;;7.31;52.53;97758.16;7002477;28;20318;-82
2023/03/06 05:48:59;;;;;;;28.67;16.40;;;;;;;7.33;53.33;97769.47;6985906;28;20318;-82
2023/03/06 05:52:20;;;;;;;30.67;16.63;;;;;;;7.42;52.59;97765.56;6974432;28;20284;-81
2023/03/06 05:55:42;;;;;;;25.70;17.30;;;;;;;7.27;52.47;97733.63;6973908;28;20199;-82
2023/03/06 05:59:03;;;;;;;30.57;15.97;;;;;;;7.59;52.23;97759.50;6977743;28;20233;-81
2023/03/06 06:02:25;;;;;;;20.37;14.53;;;;;;;7.84;51.09;97765.00;6990625;28;20686;-81
2023/03/06 06:05:48;;;;;;;24.47;15.30;;;;;;;7.84;51.21;97771.16;6992330;28;20370;-81
2023/03/06 06:09:09;;;;;;;32.80;15.03;;;;;;;7.12;51.81;97676.75;7001950;28;20229;-81
2023/03/06 06:12:31;;;;;;;29.43;15.87;;;;;;;7.53;52.47;97772.91;7001308;28;20213;-82
2023/03/06 06:15:52;;;;;;;30.93;18.10;;;;;;;6.90;53.94;97774.47;7000779;28;20628;-82
2023/03/06 06:19:17;;;;;;;26.60;16.00;;;;;;;7.28;53.39;97766.59;7000684;28;20364;-83
2023/03/06 06:22:40;;;;;;;23.83;15.23;;;;;;;7.55;52.82;97757.47;7000448;28;20202;-81
2023/03/06 06:26:03;;;;;;;30.60;17.33;;;;;;;7.66;52.10;97752.25;7000159;28;20242;-81
2023/03/06 06:29:25;;;;;;;29.60;17.13;;;;;;;7.42;52.04;97754.81;7000724;28;20225;-81
2023/03/06 06:32:47;;;;;;;30.43;17.37;;;;;;;7.51;52.25;97772.31;7001112;28;20348;-80
2023/03/06 06:36:15;;;;;;;29.27;17.13;;;;;;;7.22;52.20;97736.09;7000335;28;20679;-81
2023/03/06 06:39:38;;;;;;;25.73;15.53;;;;;;;7.78;51.78;97774.69;7000686;28;20229;-81
2023/03/06 06:43:00;;;;;;;27.10;15.63;;;;;;;7.76;51.49;97774.09;7000772;28;20253;-82
2023/03/06 06:46:21;;;;;;;24.87;16.37;;;;;;;7.77;51.54;97777.63;7000277;28;20892;-81
2023/03/06 06:49:45;;;;;;;29.17;16.47;;;;;;;7.57;51.11;97748.19;6999063;28;20707;-81
2023/03/06 06:53:06;;;;;;;27.13;16.93;;;;;;;7.81;51.80;97776.97;7000275;28;20195;-82
2023/03/06 06:56:29;;;;;;;29.27;16.20;;;;;;;7.63;51.24;97739.28;7000068;28;20266;-81
2023/03/06 06:59:51;;;;;;;28.20;16.10;;;;;;;7.35;52.84;97778.13;7000088;28;20281;-81
2023/03/06 07:03:12;;;;;;;25.13;16.43;;;;;;;7.37;52.81;97784.13;6991015;28;20266;-82
2023/03/06 07:06:34;;;;;;;29.50;17.00;;;;;;;7.72;52.14;97780.91;6994819;28;20236;-81
2023/03/06 07:09:56;;;;;;;27.07;16.37;;;;;;;7.62;51.78;97750.22;6973764;28;20427;-81
2023/03/06 07:13:19;;;;;;;25.90;16.50;;;;;;;8.11;50.65;97777.22;6971617;28;20205;-83
2023/03/06 07:16:40;;;;;;;24.23;15.57;;;;;;;7.93;51.48;97774.44;6973695;28;20206;-82
2023/03/06 07:20:02;;;;;;;24.20;15.23;;;;;;;8.07;50.75;97773.34;6977372;28;20326;-81
2023/03/06 07:23:25;;;;;;;26.23;15.03;;;;;;;8.06;50.77;97777.03;6973945;28;20291;-81
2023/03/06 07:26:46;;;;;;;22.90;15.33;;;;;;;8.04;51.23;97787.19;6972602;28;20235;-81
2023/03/06 07:30:12;;;;;;;26.53;15.47;;;;;;;8.02;50.85;97765.91;6982800;28;20280;-82
2023/03/06 07:33:33;;;;;;;22.67;14.17;;;;;;;8.43;50.40;97789.69;6983866;28;20198;-81
2023/03/06 07:36:55;;;;;;;24.70;13.97;;;;;;;7.73;51.11;97797.84;6999580;28;20194;-81
2023/03/06 07:40:18;;;;;;;23.90;14.83;;;;;;;8.19;50.31;97793.91;6999235;28;20255;-81
2023/03/06 07:43:40;;;;;;;29.53;16.73;;;;;;;8.01;50.35;97776.88;7000484;28;20220;-81
2023/03/06 07:47:03;;;;;;;24.27;15.40;;;;;;;8.34;49.58;97799.88;6998773;28;20231;-80
2023/03/06 07:50:25;;;;;;;25.90;15.80;;;;;;;8.39;49.90;97788.47;6979038;28;20237;-82
2023/03/06 07:53:47;;;;;;;27.70;16.80;;;;;;;8.64;49.75;97808.97;6969377;28;20281;-81
2023/03/06 07:57:08;;;;;;;25.37;16.20;;;;;;;8.48;48.97;97793.38;6969307;28;20205;-82
2023/03/06 08:00:30;;;;;;;28.07;16.20;;;;;;;8.64;49.27;97817.03;6970174;28;20279;-81
2023/03/06 08:03:53;;;;;;;28.77;17.83;;;;;;;8.46;49.44;97784.72;6969519;28;20307;-80
2023/03/06 08:07:15;;;;;;;24.60;15.93;;;;;;;9.00;49.03;97814.47;6969651;28;20612;-82
2023/03/06 08:10:36;;;;;;;27.23;17.37;;;;;;;9.23;48.32;97812.03;6970117;28;20226;-81
2023/03/06 08:13:58;;;;;;;25.83;16.93;;;;;;;9.29;48.41;97809.28;6970087;28;20614;-81
2023/03/06 08:17:20;;;;;;;24.30;14.20;;;;;;;9.13;47.13;97812.53;6969503;28;20310;-80
2023/03/06 08:20:43;;;;;;;21.43;13.33;;;;;;;9.41;46.74;97806.66;6969713;28;20666;-81
2023/03/06 08:24:05;;;;;;;20.43;12.53;;;;;;;8.97;46.10;97827.53;6970983;28;20802;-82
2023/03/06 08:27:26;;;;;;;14.23;10.77;;;;;;;9.48;45.67;97808.25;6973311;28;20226;-82
2023/03/06 08:30:48;;;;;;;17.80;11.40;;;;;;;9.97;44.99;97801.91;6990918;28;20277;-82
2023/03/06 08:34:11;;;;;;;21.40;12.47;;;;;;;9.95;44.89;97815.59;7004579;28;20309;-81
2023/03/06 08:37:33;;;;;;;15.57;10.27;;;;;;;9.59;45.04;97807.53;7005437;28;20259;-81
2023/03/06 08:40:55;;;;;;;16.20;10.03;;;;;;;9.47;44.12;97809.31;7006585;28;20271;-81
2023/03/06 08:44:16;;;;;;;15.33;9.20;;;;;;;9.48;44.01;97786.72;7007104;28;20252;-81
2023/03/06 08:47:38;;;;;;;11.23;9.37;;;;;;;9.89;43.24;97810.28;7007472;28;20279;-81
2023/03/06 08:51:00;;;;;;;14.23;8.73;;;;;;;9.58;43.79;97805.06;7006355;28;20250;-80
2023/03/06 08:54:22;;;;;;;15.10;9.47;;;;;;;9.51;43.40;97807.00;7006188;28;20321;-81
2023/03/06 08:57:44;;;;;;;14.13;8.77;;;;;;;9.94;42.69;97795.13;6988669;28;20294;-80
2023/03/06 09:01:12;;;;;;;17.13;9.80;;;;;;;10.06;42.25;97805.97;6980959;28;20217;-82
2023/03/06 09:04:34;;;;;;;12.03;7.57;;;;;;;10.04;41.74;97794.63;6991008;28;20213;-81
2023/03/06 09:07:56;;;;;;;11.33;8.00;;;;;;;10.20;42.23;97816.34;7002573;28;20202;-81
2023/03/06 09:11:20;;;;;;;9.47;7.03;;;;;;;10.29;41.15;97811.47;7003256;28;20698;-81
2023/03/06 09:14:41;;;;;;;11.73;7.20;;;;;;;10.74;39.96;97810.03;6986647;28;20293;-81
2023/03/06 09:18:03;;;;;;;10.50;7.23;;;;;;;10.80;39.53;97809.09;6973084;28;20213;-81
2023/03/06 09:21:26;;;;;;;8.87;7.23;;;;;;;9.96;40.53;97768.78;6998041;28;20290;-80
2023/03/06 09:24:49;;;;;;;8.50;7.00;;;;;;;10.27;41.25;97810.91;6993936;28;20226;-82
2023/03/06 09:28:12;;;;;;;9.53;7.23;;;;;;;10.35;40.62;97810.56;6992395;28;20208;-81
2023/03/06 09:31:33;;;;;;;11.03;7.03;;;;;;;10.14;41.20;97802.97;7008021;28;20284;-81
2023/03/06 09:34:55;;;;;;;8.63;6.97;;;;;;;10.37;40.56;97801.22;7012790;28;20271;-81
2023/03/06 09:38:16;;;;;;;17.77;10.10;;;;;;;10.03;41.64;97806.41;7011622;28;20809;-81
2023/03/06 09:41:40;;;;;;;13.73;6.00;;;;;;;9.77;42.12;97796.78;6994629;28;20206;-80
2023/03/06 09:45:05;;;;;;;8.47;6.80;;;;;;;9.93;41.71;97812.28;6993555;28;20366;-80
2023/03/06 09:48:32;;;;;;;9.90;6.50;;;;;;;9.54;42.55;97815.44;7002022;28;20395;-80
2023/03/06 09:52:00;;;;;;;8.67;6.67;;;;;;;9.82;41.90;97814.94;7003035;28;20219;-80
2023/03/06 09:55:25;;;;;;;7.80;6.13;;;;;;;9.67;42.41;97804.53;7002440;28;20314;-80
2023/03/06 09:58:48;;;;;;;9.83;7.13;;;;;;;9.82;42.84;97806.84;7002552;28;20226;-80
2023/03/06 10:02:14;;;;;;;9.63;6.90;;;;;;;10.15;41.39;97810.81;7002108;28;20682;-80
2023/03/06 10:05:40;;;;;;;11.00;6.97;;;;;;;10.07;42.34;97816.53;7001579;28;20211;-80
2023/03/06 10:09:03;;;;;;;8.17;7.23;;;;;;;9.77;43.32;97815.59;6999281;28;20268;-81
2023/03/06 10:12:28;;;;;;;13.10;8.03;;;;;;;10.21;42.40;97777.59;6998664;28;20283;-79
2023/03/06 10:15:49;;;;;;;11.73;7.13;;;;;;;10.55;41.59;97816.50;7002383;28;20201;-80
2023/03/06 10:19:15;;;;;;;10.67;6.50;;;;;;;9.80;42.69;97812.47;7001994;28;20698;-79
2023/03/06 10:22:39;;;;;;;10.27;6.87;;;;;;;10.38;41.56;97816.31;6978210;28;20248;-80
2023/03/06 10:26:03;;;;;;;8.10;6.47;;;;;;;9.69;42.37;97809.69;6969278;28;20311;-79
2023/03/06 10:29:42;;;;;;;8.17;6.73;;;;;;;10.26;41.50;97815.44;6994130;28;20810;-80
2023/03/06 10:33:08;;;;;;;7.73;6.90;;;;;;;9.95;42.27;97818.31;7001798;28;20296;-80
2023/03/06 10:36:31;;;;;;;8.17;6.53;;;;;;;10.35;41.86;97811.41;7000212;28;20245;-79
2023/03/06 10:39:57;;;;;;;7.93;7.13;;;;;;;10.83;41.21;97817.56;7001173;28;20710;-80
2023/03/06 10:43:19;;;;;;;8.97;6.40;;;;;;;10.32;41.32;97811.84;6997049;28;20281;-80
2023/03/06 10:46:42;;;;;;;8.83;6.47;;;;;;;10.27;40.83;97810.91;6996671;28;20633;-79
2023/03/06 10:50:07;;;;;;;8.77;6.37;;;;;;;10.25;40.97;97810.28;6999447;28;20248;-80
2023/03/06 10:53:30;;;;;;;9.90;6.97;;;;;;;10.26;41.25;97812.75;7005781;28;20277;-80
2023/03/06 10:56:51;;;;;;;10.27;6.50;;;;;;;10.37;40.72;97811.16;7003449;28;20301;-80
2023/03/06 11:00:25;;;;;;;8.73;7.10;;;;;;;9.81;42.00;97818.69;7001176;28;20233;-80
2023/03/06 11:03:47;;;;;;;7.53;6.50;;;;;;;9.81;41.71;97818.69;6999611;28;20190;-79
2023/03/06 11:07:14;;;;;;;7.93;6.80;;;;;;;10.52;42.48;97812.38;6999695;28;20236;-79
2023/03/06 11:10:37;;;;;;;10.03;8.20;;;;;;;10.14;43.22;97817.25;6999001;28;20359;-79
2023/03/06 11:13:59;;;;;;;12.27;7.37;;;;;;;10.68;42.13;97806.38;6998731;28;20205;-79
2023/03/06 11:17:27;;;;;;;8.80;6.73;;;;;;;10.63;41.27;97814.31;6997931;28;20251;-79
2023/03/06 11:20:50;;;;;;;11.47;6.93;;;;;;;11.31;40.25;97807.44;6997445;28;20228;-82
2023/03/06 11:24:16;;;;;;;8.63;6.63;;;;;;;11.88;39.14;97795.81;6997705;28;20282;-80
2023/03/06 11:27:41;;;;;;;11.67;7.50;;;;;;;11.97;37.83;97782.72;6998386;28;20210;-79
2023/03/06 11:31:06;;;;;;;8.73;7.17;;;;;;;11.48;38.07;97785.94;7000929;28;20241;-79
2023/03/06 11:34:38;;;;;;;8.33;6.77;;;;;;;11.52;38.57;97787.94;7007547;28;21770;-79
2023/03/06 11:38:05;;;;;;;7.27;5.90;;;;;;;11.40;38.17;97757.44;6993847;28;20565;-79
2023/03/06 11:41:35;;;;;;;9.80;6.40;;;;;;;11.76;37.67;97788.78;7004592;28;20226;-78
2023/03/06 11:45:08;;;;;;;8.97;6.33;;;;;;;11.26;37.30;97788.41;7002927;28;20280;-80
2023/03/06 11:48:35;;;;;;;7.57;6.50;;;;;;;10.91;37.94;97711.22;6999264;28;20645;-79
2023/03/06 11:51:59;;;;;;;10.63;7.60;;;;;;;11.50;37.04;97771.16;6999516;28;20197;-81
2023/03/06 11:55:30;;;;;;;8.27;6.87;;;;;;;11.42;36.23;97768.84;6984474;28;20319;-79
2023/03/06 11:58:57;;;;;;;9.47;6.57;;;;;;;11.29;36.80;97755.59;6971767;28;20313;-80
2023/03/06 12:02:29;;;;;;;9.57;7.07;;;;;;;11.06;37.06;97752.88;6976825;28;20195;-80
2023/03/06 12:05:55;;;;;;;9.30;6.80;;;;;;;11.56;36.76;97745.13;6976503;28;20300;-81
2023/03/06 12:09:25;;;;;;;10.27;7.20;;;;;;;11.34;36.74;97752.16;6978371;28;20293;-79
2023/03/06 12:13:11;;;;;;;11.60;10.50;;;;;;;11.41;36.91;97740.22;6978148;28;20677;-79
2023/03/06 12:16:44;;;;;;;8.00;6.73;;;;;;;11.31;36.67;97745.38;6990745;28;20758;-79
2023/03/06 12:20:30;;;;;;;9.33;6.50;;;;;;;11.20;36.90;97743.47;7000896;28;20238;-79
2023/03/06 12:24:01;;;;;;;9.40;7.70;;;;;;;12.13;36.27;97739.59;6998598;28;20226;-80
2023/03/06 12:27:26;;;;;;;9.47;8.43;;;;;;;11.84;36.59;97726.28;6973027;28;20343;-79
2023/03/06 12:31:09;;;;;;;10.40;7.60;;;;;;;12.21;36.90;97727.59;6994320;28;20227;-79
2023/03/06 12:34:43;;;;;;;9.27;7.33;;;;;;;12.51;35.96;97723.53;7000357;28;20347;-81
2023/03/06 12:38:21;;;;;;;9.77;7.47;;;;;;;12.15;35.68;97729.34;7000163;28;20181;-80
2023/03/06 12:41:48;;;;;;;9.23;6.97;;;;;;;12.13;36.25;97722.56;6989006;28;20202;-79
2023/03/06 12:45:23;;;;;;;7.07;6.37;;;;;;;11.69;36.76;97726.78;6972424;28;20268;-81
2023/03/06 12:48:48;;;;;;;7.30;6.57;;;;;;;12.02;36.14;97718.00;6971179;28;20372;-79
2023/03/06 12:52:18;;;;;;;8.67;7.17;;;;;;;11.34;37.08;97728.69;6972635;28;20278;-82
2023/03/06 12:55:44;;;;;;;8.87;7.00;;;;;;;11.46;36.93;97721.41;6972350;28;20280;-79
2023/03/06 12:59:05;;;;;;;10.70;7.00;;;;;;;11.62;37.16;97714.50;6972502;28;20255;-79
2023/03/06 13:02:59;;;;;;;12.50;6.80;;;;;;;12.02;36.70;97708.03;6973009;28;20207;-80
2023/03/06 13:06:39;;;;;;;8.47;6.40;;;;;;;11.46;36.51;97683.63;6972426;28;20226;-81
2023/03/06 13:10:11;;;;;;;12.20;9.03;;;;;;;11.38;36.98;97721.78;6972305;28;20230;-79
2023/03/06 13:13:41;;;;;;;7.37;6.37;;;;;;;11.42;36.46;97714.84;6973118;28;20345;-81
2023/03/06 13:17:28;;;;;;;7.60;6.57;;;;;;;11.58;36.08;97700.63;6975271;28;20190;-80
2023/03/06 13:20:51;;;;;;;9.30;6.50;;;;;;;11.30;36.61;97716.75;6973065;28;20223;-79
2023/03/06 13:24:18;;;;;;;10.73;6.90;;;;;;;12.08;35.75;97703.53;6971868;28;20233;-80
2023/03/06 13:27:45;;;;;;;9.03;7.10;;;;;;;11.65;36.11;97709.44;6973181;28;20249;-80
2023/03/06 13:31:08;;;;;;;10.73;8.23;;;;;;;11.31;38.55;97702.19;6974493;28;20363;-80
2023/03/06 13:34:33;;;;;;;13.83;8.37;;;;;;;11.31;38.48;97709.44;6978745;28;20271;-80
2023/03/06 13:37:55;;;;;;;11.83;8.77;;;;;;;11.02;39.19;97703.13;7002772;28;20231;-80
2023/03/06 13:41:44;;;;;;;9.80;8.17;;;;;;;10.87;39.67;97710.84;7016237;28;20225;-80
2023/03/06 13:45:07;;;;;;;10.20;7.93;;;;;;;10.99;39.58;97706.28;6977532;28;20686;-80
2023/03/06 13:48:34;;;;;;;10.93;8.47;;;;;;;10.84;39.94;97703.25;7006618;28;20751;-81
2023/03/06 13:52:06;;;;;;;10.47;8.00;;;;;;;11.66;39.04;97710.25;7008029;28;20210;-80
2023/03/06 13:55:31;;;;;;;9.47;7.03;;;;;;;11.39;37.45;97692.91;7008640;28;20206;-80
2023/03/06 13:59:06;;;;;;;10.10;7.13;;;;;;;11.25;36.66;97705.00;6998294;28;20219;-80
2023/03/06 14:02:40;;;;;;;8.80;6.70;;;;;;;11.06;37.54;97698.94;7006218;28;20741;-81
2023/03/06 14:06:42;;;;;;;11.87;7.00;;;;;;;11.35;36.79;97699.84;7003397;28;20311;-80
2023/03/06 14:10:20;;;;;;;9.63;6.87;;;;;;;11.64;36.27;97688.88;7003886;28;20310;-80
2023/03/06 14:13:47;;;;;;;7.33;5.90;;;;;;;11.71;36.19;97689.59;6996188;28;20766;-80
2023/03/06 14:17:19;;;;;;;12.93;6.40;;;;;;;11.20;36.72;97686.00;6988686;28;20285;-79
2023/03/06 14:20:42;;;;;;;9.80;6.73;;;;;;;11.48;36.23;97686.91;6981322;28;20286;-79
2023/03/06 14:24:06;;;;;;;11.30;8.83;;;;;;;11.44;36.17;97691.13;6996660;28;20297;-80
2023/03/06 14:27:47;;;;;;;39.10;21.07;;;;;;;11.23;35.98;97686.34;6997364;28;20701;-79
2023/03/06 14:31:15;;;;;;;10.30;7.70;;;;;;;11.49;35.60;97677.75;6996934;28;20260;-80
2023/03/06 14:34:39;;;;;;;11.73;7.23;;;;;;;11.28;35.84;97681.06;6999668;28;20194;-80
2023/03/06 14:38:02;;;;;;;11.67;6.77;;;;;;;11.45;35.64;97683.88;7002458;28;20362;-81
2023/03/06 14:41:27;;;;;;;9.40;6.63;;;;;;;10.93;36.35;97676.75;7003086;28;20230;-81
2023/03/06 14:45:00;;;;;;;7.00;5.60;;;;;;;10.98;36.83;97683.09;7001555;28;20303;-80
2023/03/06 14:48:22;;;;;;;9.80;5.93;;;;;;;11.20;35.28;97683.31;7003892;28;20222;-80
2023/03/06 14:51:45;;;;;;;8.77;5.70;;;;;;;10.66;36.13;97676.41;7006625;28;20247;-81
2023/03/06 14:55:10;;;;;;;12.47;6.47;;;;;;;11.20;35.27;97680.59;7007178;28;20681;-81
2023/03/06 14:58:36;;;;;;;6.97;5.90;;;;;;;11.27;35.30;97667.84;7001700;28;20285;-81
2023/03/06 15:01:59;;;;;;;14.53;5.97;;;;;;;11.22;35.46;97665.03;7002116;28;20657;-82
2023/03/06 15:05:23;;;;;;;10.07;6.10;;;;;;;10.93;35.54;97674.06;7001723;28;20224;-81
2023/03/06 15:08:47;;;;;;;10.20;6.30;;;;;;;10.97;35.97;97673.34;7000641;28;20899;-81
2023/03/06 15:12:35;;;;;;;10.53;6.23;;;;;;;10.89;35.93;97679.09;6997200;28;20203;-81
2023/03/06 15:16:00;;;;;;;8.13;6.00;;;;;;;10.89;36.03;97679.09;6974272;28;20206;-81
2023/03/06 15:19:23;;;;;;;9.37;6.33;;;;;;;10.85;35.93;97672.53;6995910;28;20221;-80
2023/03/06 15:22:50;;;;;;;13.00;8.33;;;;;;;10.70;35.70;97663.28;7000230;28;20229;-80
2023/03/06 15:26:30;;;;;;;9.10;6.33;;;;;;;10.70;35.92;97663.28;7000809;28;20674;-80
2023/03/06 15:29:52;;;;;;;8.07;6.00;;;;;;;10.96;35.45;97677.13;7000926;28;20225;-81
2023/03/06 15:33:25;;;;;;;8.70;6.10;;;;;;;10.54;35.50;97621.66;7001881;28;20298;-82
2023/03/06 15:36:48;;;;;;;8.70;6.33;;;;;;;10.65;36.23;97665.84;6999622;28;20209;-81
2023/03/06 15:40:19;;;;;;;8.60;6.40;;;;;;;10.52;36.06;97660.69;6975569;28;20229;-80
2023/03/06 15:43:40;;;;;;;16.87;9.87;;;;;;;10.97;36.02;97667.13;6971633;28;20292;-80
2023/03/06 15:47:02;;;;;;;13.40;8.10;;;;;;;10.78;36.11;97671.00;6981903;28;20321;-81
2023/03/06 15:50:27;;;;;;;10.47;7.63;;;;;;;10.92;36.10;97675.13;6982168;28;20317;-80
2023/03/06 15:53:49;;;;;;;7.57;5.93;;;;;;;10.60;36.52;97668.41;6979500;28;20207;-81